createdAt,value
2018-08-09T00:02:26.276Z,18.02
2018-08-09T00:04:59.485Z,17.97
2018-08-09T00:07:35.101Z,17.90
2018-08-09T00:10:08.480Z,17.82
2018-08-09T00:12:41.884Z,17.75
2018-08-09T00:15:17.497Z,17.71
2018-08-09T00:17:50.938Z,17.71
2018-08-09T00:20:23.817Z,17.73
2018-08-09T00:22:56.428Z,17.72
2018-08-09T00:25:29.071Z,17.65
2018-08-09T00:28:02.790Z,17.58
2018-08-09T00:30:36.136Z,17.55
2018-08-09T00:33:08.700Z,17.54
2018-08-09T00:35:43.242Z,17.51
2018-08-09T00:38:16.648Z,17.51
2018-08-09T00:40:51.610Z,17.48
2018-08-09T00:43:25.501Z,17.61
2018-08-09T00:45:58.152Z,17.73
2018-08-09T00:48:31.850Z,17.68
2018-08-09T00:51:06.704Z,17.68
2018-08-09T00:53:39.385Z,17.78
2018-08-09T00:56:12.192Z,17.87
2018-08-09T00:58:45.137Z,17.96
2018-08-09T01:01:18.000Z,17.97
2018-08-09T01:03:51.473Z,17.95
2018-08-09T01:06:24.317Z,17.96
2018-08-09T01:09:04.020Z,17.89
2018-08-09T01:11:38.375Z,17.82
2018-08-09T01:14:12.528Z,17.78
2018-08-09T01:16:45.073Z,17.75
2018-08-09T01:19:18.277Z,17.74
2018-08-09T01:25:17.276Z,17.71
2018-08-09T01:27:50.729Z,17.71
2018-08-09T01:30:23.359Z,17.73
2018-08-09T01:32:56.394Z,17.74
2018-08-09T01:35:28.998Z,17.72
2018-08-09T01:38:01.908Z,17.69
2018-08-09T01:40:36.856Z,17.65
2018-08-09T01:43:31.863Z,17.57
2018-08-09T01:46:04.777Z,17.50
2018-08-09T01:48:37.896Z,17.44
2018-08-09T01:51:10.636Z,17.41
2018-08-09T01:53:45.812Z,17.48
2018-08-09T01:56:18.944Z,17.49
2018-08-09T01:58:53.215Z,17.33
2018-08-09T02:01:26.075Z,17.19
2018-08-09T02:03:59.335Z,17.09
2018-08-09T02:06:32.006Z,17.12
2018-08-09T02:09:32.136Z,17.03
2018-08-09T02:12:05.198Z,17.04
2018-08-09T02:14:38.505Z,17.22
2018-08-09T02:17:11.316Z,17.34
2018-08-09T02:19:44.031Z,17.47
2018-08-09T02:22:17.249Z,17.55
2018-08-09T02:24:50.180Z,17.65
2018-08-09T02:27:22.797Z,17.78
2018-08-09T02:29:55.588Z,17.88
2018-08-09T02:32:28.355Z,17.96
2018-08-09T02:35:01.238Z,18.04
2018-08-09T02:37:34.026Z,18.09
2018-08-09T02:40:08.142Z,18.03
2018-08-09T02:42:42.553Z,17.98
2018-08-09T02:45:16.682Z,17.94
2018-08-09T02:47:50.597Z,17.98
2018-08-09T02:50:23.440Z,18.03
2018-08-09T02:52:56.065Z,17.99
2018-08-09T02:55:29.080Z,17.90
2018-08-09T02:58:01.626Z,17.77
2018-08-09T03:00:34.242Z,17.62
2018-08-09T03:03:07.296Z,17.52
2018-08-09T03:05:39.977Z,17.46
2018-08-09T03:08:12.664Z,17.42
2018-08-09T03:10:45.582Z,17.45
2018-08-09T03:13:18.151Z,17.54
2018-08-09T03:15:51.053Z,17.56
2018-08-09T03:18:23.932Z,17.56
2018-08-09T03:20:56.673Z,17.60
2018-08-09T03:23:29.488Z,17.62
2018-08-09T03:26:02.723Z,17.52
2018-08-09T03:28:35.462Z,17.36
2018-08-09T03:31:08.320Z,17.20
2018-08-09T03:33:41.261Z,17.02
2018-08-09T03:36:13.900Z,16.86
2018-08-09T03:38:48.438Z,16.75
2018-08-09T03:41:21.876Z,16.70
2018-08-09T03:43:54.470Z,16.79
2018-08-09T03:46:27.112Z,16.93
2018-08-09T03:49:00.114Z,17.07
2018-08-09T03:51:35.036Z,17.13
2018-08-09T03:54:08.347Z,17.18
2018-08-09T03:56:41.500Z,17.26
2018-08-09T03:59:14.355Z,17.36
2018-08-09T04:01:47.055Z,17.43
2018-08-09T04:04:20.040Z,17.50
2018-08-09T04:06:53.556Z,17.60
2018-08-09T04:09:27.094Z,17.70
2018-08-09T04:12:00.661Z,17.80
2018-08-09T04:14:33.219Z,17.91
2018-08-09T04:17:12.009Z,17.95
2018-08-09T04:19:46.071Z,17.93
2018-08-09T04:22:19.520Z,17.94
2018-08-09T04:24:52.293Z,17.97
2018-08-09T04:27:24.884Z,18.03
2018-08-09T04:29:57.458Z,18.11
2018-08-09T04:32:30.731Z,18.22
2018-08-09T04:35:03.529Z,18.36
2018-08-09T04:37:36.919Z,18.48
2018-08-09T04:40:09.693Z,18.47
2018-08-09T04:42:42.888Z,18.43
2018-08-09T04:45:16.435Z,18.40
2018-08-09T04:47:52.411Z,18.42
2018-08-09T04:50:24.901Z,18.45
2018-08-09T04:52:57.523Z,18.50
2018-08-09T04:55:30.216Z,18.53
2018-08-09T04:58:02.975Z,18.53
2018-08-09T05:00:35.389Z,18.51
2018-08-09T05:03:08.113Z,18.49
2018-08-09T05:05:40.646Z,18.47
2018-08-09T05:08:13.244Z,18.49
2018-08-09T05:10:45.967Z,18.52
2018-08-09T05:13:18.377Z,18.64
2018-08-09T05:15:51.722Z,18.95
2018-08-09T05:18:26.122Z,19.10
2018-08-09T05:20:58.526Z,19.26
2018-08-09T05:23:32.528Z,19.39
2018-08-09T05:26:06.369Z,19.62
2018-08-09T05:28:38.945Z,19.74
2018-08-09T05:31:11.333Z,19.78
2018-08-09T05:33:46.238Z,19.69
2018-08-09T05:36:19.517Z,19.64
2018-08-09T05:38:52.110Z,19.62
2018-08-09T05:41:26.565Z,19.61
2018-08-09T05:43:59.875Z,19.62
2018-08-09T05:46:32.293Z,19.60
2018-08-09T05:49:05.400Z,19.60
2018-08-09T05:51:39.712Z,19.62
2018-08-09T05:54:12.296Z,19.65
2018-08-09T05:56:45.360Z,19.73
2018-08-09T05:59:17.913Z,19.89
2018-08-09T06:01:50.471Z,20.05
2018-08-09T06:04:23.300Z,20.32
2018-08-09T06:06:55.824Z,20.43
2018-08-09T06:09:28.431Z,20.68
2018-08-09T06:12:01.328Z,20.79
2018-08-09T06:14:33.913Z,20.91
2018-08-09T06:17:06.509Z,21.06
2018-08-09T06:19:39.552Z,21.28
2018-08-09T06:22:12.989Z,21.50
2018-08-09T06:24:45.688Z,21.72
2018-08-09T06:27:20.817Z,22.03
2018-08-09T06:29:54.296Z,22.37
2018-08-09T06:32:26.962Z,22.56
2018-08-09T06:35:00.180Z,22.88
2018-08-09T06:37:33.486Z,23.08
2018-08-09T06:40:12.244Z,23.29
2018-08-09T06:42:45.040Z,23.29
2018-08-09T06:45:18.748Z,23.31
2018-08-09T06:47:53.912Z,23.38
2018-08-09T06:50:29.338Z,23.37
2018-08-09T06:53:02.107Z,23.53
2018-08-09T06:55:37.274Z,23.54
2018-08-09T06:58:09.900Z,23.60
2018-08-09T07:00:42.839Z,23.61
2018-08-09T07:03:16.452Z,23.66
2018-08-09T07:05:49.139Z,23.68
2018-08-09T07:08:24.068Z,23.62
2018-08-09T07:10:56.626Z,23.62
2018-08-09T07:13:29.258Z,23.69
2018-08-09T07:16:02.770Z,23.85
2018-08-09T07:18:37.064Z,24.04
2018-08-09T07:21:12.285Z,24.30
2018-08-09T07:23:44.973Z,24.47
2018-08-09T07:26:17.608Z,24.63
2018-08-09T07:28:56.657Z,24.87
2018-08-09T07:31:33.970Z,25.01
2018-08-09T07:34:12.226Z,25.13
2018-08-09T07:36:50.688Z,25.18
2018-08-09T07:39:24.222Z,25.15
2018-08-09T07:41:56.779Z,25.05
2018-08-09T07:44:31.013Z,25.01
2018-08-09T07:47:06.440Z,25.00
2018-08-09T07:49:39.476Z,24.99
2018-08-09T07:52:12.824Z,25.04
2018-08-09T07:54:47.626Z,25.09
2018-08-09T07:57:21.356Z,25.14
2018-08-09T07:59:54.066Z,25.19
2018-08-09T08:02:30.929Z,25.28
2018-08-09T08:05:05.718Z,25.39
2018-08-09T08:07:38.357Z,25.48
2018-08-09T08:10:11.569Z,25.55
2018-08-09T08:12:43.998Z,25.56
2018-08-09T08:15:15.805Z,25.53
2018-08-09T08:17:51.629Z,25.54
2018-08-09T08:20:24.240Z,25.89
2018-08-09T08:22:56.788Z,26.35
2018-08-09T08:25:29.796Z,26.98
2018-08-09T08:28:05.412Z,27.42
2018-08-09T08:30:40.971Z,27.44
2018-08-09T08:33:15.314Z,27.33
2018-08-09T08:35:47.888Z,27.13
2018-08-09T08:38:20.731Z,26.88
2018-08-09T08:40:53.843Z,26.74
2018-08-09T08:43:28.576Z,26.68
2018-08-09T08:46:05.229Z,26.58
2018-08-09T08:48:39.008Z,26.49
2018-08-09T08:51:14.668Z,26.38
2018-08-09T08:53:49.012Z,26.50
2018-08-09T08:56:23.482Z,26.87
2018-08-09T08:58:57.287Z,27.03
2018-08-09T09:01:30.583Z,27.22
2018-08-09T09:04:04.054Z,27.61
2018-08-09T09:06:37.057Z,28.38
2018-08-09T09:09:12.800Z,29.11
2018-08-09T09:11:46.280Z,29.74
2018-08-09T09:14:19.256Z,30.39
2018-08-09T09:16:53.443Z,31.04
2018-08-09T09:19:28.800Z,31.23
2018-08-09T09:22:06.270Z,31.28
2018-08-09T09:24:44.536Z,31.69
2018-08-09T09:27:17.091Z,31.91
2018-08-09T09:29:51.320Z,32.15
2018-08-09T09:32:25.652Z,32.13
2018-08-09T09:34:59.953Z,32.47
2018-08-09T09:37:33.256Z,32.88
2018-08-09T09:40:08.137Z,33.14
2018-08-09T09:42:41.064Z,32.67
2018-08-09T09:45:20.250Z,32.10
2018-08-09T09:47:55.969Z,32.32
2018-08-09T09:50:29.716Z,32.84
2018-08-09T09:53:07.345Z,33.39
2018-08-09T09:55:43.754Z,33.43
2018-08-09T09:58:20.667Z,33.74
2018-08-09T10:00:59.565Z,33.86
2018-08-09T10:03:32.152Z,34.03
2018-08-09T10:06:10.900Z,33.88
2018-08-09T10:08:46.295Z,34.11
2018-08-09T10:11:20.030Z,33.83
2018-08-09T10:13:56.919Z,33.84
2018-08-09T10:16:29.623Z,33.97
2018-08-09T10:19:02.902Z,33.96
2018-08-09T10:21:37.564Z,33.69
2018-08-09T10:24:11.527Z,33.67
2018-08-09T10:26:45.621Z,33.93
2018-08-09T10:29:23.220Z,33.72
2018-08-09T10:31:56.653Z,33.80
2018-08-09T10:34:29.874Z,34.31
2018-08-09T10:37:06.321Z,34.63
2018-08-09T10:39:39.201Z,34.86
2018-08-09T10:42:12.824Z,35.05
2018-08-09T10:44:47.024Z,35.41
2018-08-09T10:47:20.305Z,35.44
2018-08-09T10:49:55.592Z,35.55
2018-08-09T10:52:31.424Z,35.14
2018-08-09T10:55:04.893Z,34.64
2018-08-09T10:57:39.692Z,33.88
2018-08-09T11:00:14.724Z,33.33
2018-08-09T11:02:49.989Z,33.46
2018-08-09T11:05:24.624Z,34.04
2018-08-09T11:07:58.318Z,34.43
2018-08-09T11:10:38.359Z,34.34
2018-08-09T11:13:12.984Z,34.03
2018-08-09T11:15:51.004Z,33.91
2018-08-09T11:18:25.648Z,33.88
2018-08-09T11:21:00.240Z,33.90
2018-08-09T11:23:36.341Z,33.78
2018-08-09T11:26:11.733Z,33.87
2018-08-09T11:28:44.429Z,33.63
2018-08-09T11:31:17.349Z,33.62
2018-08-09T11:33:57.605Z,33.91
2018-08-09T11:36:46.678Z,34.15
2018-08-09T11:39:19.219Z,34.17
2018-08-09T11:41:51.987Z,33.80
2018-08-09T11:44:25.217Z,33.46
2018-08-09T11:46:57.897Z,33.05
2018-08-09T11:49:31.367Z,32.83
2018-08-09T11:52:04.333Z,33.11
2018-08-09T11:54:38.620Z,33.44
2018-08-09T11:57:11.170Z,33.67
2018-08-09T11:59:44.282Z,33.89
2018-08-09T12:02:16.752Z,34.03
2018-08-09T12:04:49.299Z,33.86
2018-08-09T12:07:25.251Z,33.79
2018-08-09T12:10:02.235Z,33.84
2018-08-09T12:12:35.975Z,33.50
2018-08-09T12:15:09.282Z,33.30
2018-08-09T12:17:42.640Z,33.11
2018-08-09T12:20:17.071Z,33.02
2018-08-09T12:22:51.325Z,33.02
2018-08-09T12:25:24.676Z,33.09
2018-08-09T12:27:58.053Z,32.97
2018-08-09T12:30:32.649Z,32.89
2018-08-09T12:33:09.030Z,32.63
2018-08-09T12:35:43.131Z,32.30
2018-08-09T12:38:17.477Z,32.12
2018-08-09T12:40:50.582Z,31.93
2018-08-09T12:43:24.717Z,31.70
2018-08-09T12:45:58.231Z,31.49
2018-08-09T12:48:34.732Z,31.33
2018-08-09T12:51:09.638Z,31.36
2018-08-09T12:53:48.237Z,31.39
2018-08-09T12:56:24.077Z,31.37
2018-08-09T12:59:02.954Z,31.21
2018-08-09T13:01:38.636Z,31.26
2018-08-09T13:04:17.824Z,30.93
2018-08-09T13:06:57.813Z,30.60
2018-08-09T13:09:48.652Z,30.47
2018-08-09T13:12:27.309Z,30.33
2018-08-09T13:15:09.472Z,30.21
2018-08-09T13:17:54.367Z,30.00
2018-08-09T13:20:30.234Z,29.82
2018-08-09T13:23:03.846Z,29.58
2018-08-09T13:25:41.431Z,29.19
2018-08-09T13:28:16.421Z,28.46
2018-08-09T13:30:52.176Z,27.83
2018-08-09T13:33:29.793Z,27.33
2018-08-09T13:36:06.693Z,26.80
2018-08-09T13:38:43.409Z,26.24
2018-08-09T13:41:19.921Z,25.83
2018-08-09T13:43:56.233Z,25.61
2018-08-09T13:46:34.922Z,25.45
2018-08-09T13:49:22.046Z,25.21
2018-08-09T13:52:00.116Z,24.96
2018-08-09T13:54:35.196Z,24.84
2018-08-09T13:57:10.736Z,24.75
2018-08-09T13:59:48.779Z,24.68
2018-08-09T14:02:32.901Z,24.64
2018-08-09T14:05:10.370Z,24.65
2018-08-09T14:07:48.690Z,24.70
2018-08-09T14:10:23.855Z,24.79
2018-08-09T14:13:00.264Z,24.93
2018-08-09T14:15:39.898Z,25.01
2018-08-09T14:18:16.357Z,25.08
2018-08-09T14:20:49.484Z,25.15
2018-08-09T14:23:23.382Z,25.26
2018-08-09T14:26:04.647Z,25.34
2018-08-09T14:28:38.034Z,25.41
2018-08-09T14:31:15.307Z,25.42
2018-08-09T14:33:48.981Z,25.58
2018-08-09T14:36:22.323Z,25.70
2018-08-09T14:38:58.247Z,25.81
2018-08-09T14:41:33.455Z,26.03
2018-08-09T14:44:08.241Z,26.01
2018-08-09T14:46:41.172Z,26.05
2018-08-09T14:49:15.440Z,26.10
2018-08-09T14:51:52.588Z,26.17
2018-08-09T14:54:36.362Z,26.31
2018-08-09T14:57:09.398Z,26.53
2018-08-09T14:59:42.119Z,26.80
2018-08-09T15:02:18.492Z,26.98
2018-08-09T15:04:52.976Z,26.83
2018-08-09T15:07:28.547Z,26.49
2018-08-09T15:10:04.622Z,26.35
2018-08-09T15:12:37.337Z,26.16
2018-08-09T15:15:13.616Z,26.05
2018-08-09T15:17:48.671Z,25.84
2018-08-09T15:20:22.036Z,25.58
2018-08-09T15:22:55.620Z,25.34
2018-08-09T15:25:31.604Z,25.18
2018-08-09T15:28:06.701Z,25.06
2018-08-09T15:30:39.586Z,25.08
2018-08-09T15:33:13.675Z,25.12
2018-08-09T15:35:50.576Z,25.05
2018-08-09T15:38:26.963Z,24.97
2018-08-09T15:41:06.025Z,25.01
2018-08-09T15:43:42.570Z,24.97
2018-08-09T15:46:18.268Z,24.95
2018-08-09T15:48:53.324Z,24.95
2018-08-09T15:51:26.489Z,24.95
2018-08-09T15:53:59.118Z,24.91
2018-08-09T15:56:32.105Z,24.88
2018-08-09T15:59:13.236Z,25.09
2018-08-09T16:01:48.100Z,25.30
2018-08-09T16:04:23.410Z,25.44
2018-08-09T16:07:04.325Z,25.48
2018-08-09T16:09:37.894Z,25.47
2018-08-09T16:12:14.419Z,25.40
2018-08-09T16:14:47.165Z,25.40
2018-08-09T16:17:21.201Z,25.40
2018-08-09T16:19:58.944Z,25.41
2018-08-09T16:22:32.741Z,25.45
2018-08-09T16:25:16.710Z,25.57
2018-08-09T16:27:59.460Z,25.55
2018-08-09T16:30:34.683Z,25.55
2018-08-09T16:33:08.093Z,25.65
2018-08-09T16:35:47.361Z,25.60
2018-08-09T16:38:21.388Z,25.58
2018-08-09T16:40:56.776Z,25.52
2018-08-09T16:43:30.278Z,25.52
2018-08-09T16:46:04.044Z,25.61
2018-08-09T16:48:37.848Z,25.91
2018-08-09T16:51:12.888Z,26.18
2018-08-09T16:53:45.507Z,26.25
2018-08-09T16:56:20.491Z,26.26
2018-08-09T16:58:54.076Z,26.27
2018-08-09T17:01:31.069Z,26.29
2018-08-09T17:04:04.282Z,26.28
2018-08-09T17:06:38.668Z,26.35
2018-08-09T17:09:15.299Z,26.62
2018-08-09T17:11:49.680Z,26.77
2018-08-09T17:14:23.271Z,26.72
2018-08-09T17:16:57.180Z,26.70
2018-08-09T17:19:33.088Z,26.51
2018-08-09T17:22:06.961Z,26.30
2018-08-09T17:24:40.615Z,26.17
2018-08-09T17:27:13.511Z,26.07
2018-08-09T17:29:46.051Z,25.92
2018-08-09T17:32:22.810Z,25.56
2018-08-09T17:34:58.682Z,25.14
2018-08-09T17:37:32.015Z,24.89
2018-08-09T17:40:10.321Z,24.73
2018-08-09T17:42:45.467Z,24.60
2018-08-09T17:45:21.331Z,24.52
2018-08-09T17:47:55.704Z,24.45
2018-08-09T17:50:34.750Z,24.38
2018-08-09T17:53:12.637Z,24.32
2018-08-09T17:55:48.502Z,24.28
2018-08-09T17:58:24.432Z,24.26
2018-08-09T18:01:02.325Z,24.29
2018-08-09T18:03:37.773Z,24.17
2018-08-09T18:06:16.294Z,23.61
2018-08-09T18:08:50.370Z,22.86
2018-08-09T18:11:27.583Z,22.28
2018-08-09T18:14:02.040Z,21.70
2018-08-09T18:16:34.922Z,21.39
2018-08-09T18:19:09.993Z,21.30
2018-08-09T18:21:44.548Z,21.29
2018-08-09T18:24:23.657Z,21.28
2018-08-09T18:26:58.987Z,21.28
2018-08-09T18:29:32.653Z,21.25
2018-08-09T18:32:10.662Z,21.23
2018-08-09T18:34:45.813Z,21.20
2018-08-09T18:37:28.826Z,21.19
2018-08-09T18:40:07.301Z,21.21
2018-08-09T18:42:42.593Z,21.17
2018-08-09T18:45:18.338Z,21.17
2018-08-09T18:47:53.848Z,21.14
2018-08-09T18:50:29.169Z,21.12
2018-08-09T18:53:04.649Z,21.11
2018-08-09T18:55:40.536Z,21.15
2018-08-09T18:58:19.193Z,21.18
2018-08-09T19:00:51.997Z,21.20
2018-08-09T19:03:25.666Z,21.24
2018-08-09T19:05:59.813Z,21.26
2018-08-09T19:08:41.812Z,21.26
2018-08-09T19:11:17.746Z,21.23
2018-08-09T19:13:52.799Z,21.18
2018-08-09T19:16:28.186Z,21.15
2018-08-09T19:19:02.551Z,21.11
2018-08-09T19:21:39.646Z,21.09
2018-08-09T19:24:14.085Z,21.09
2018-08-09T19:26:51.123Z,21.06
2018-08-09T19:29:26.354Z,21.01
2018-08-09T19:32:09.738Z,20.96
2018-08-09T19:34:44.933Z,20.90
2018-08-09T19:37:20.197Z,20.82
2018-08-09T19:39:54.100Z,20.74
2018-08-09T19:42:29.537Z,20.64
2018-08-09T19:45:05.169Z,20.62
2018-08-09T19:47:38.605Z,20.58
2018-08-09T19:50:15.629Z,20.52
2018-08-09T19:52:48.886Z,20.41
2018-08-09T19:55:27.220Z,20.38
2018-08-09T19:58:00.971Z,20.30
2018-08-09T20:00:34.606Z,20.31
2018-08-09T20:03:12.522Z,20.32
2018-08-09T20:05:47.681Z,20.30
2018-08-09T20:08:20.900Z,20.23
2018-08-09T20:10:55.602Z,20.19
2018-08-09T20:13:30.435Z,20.19
2018-08-09T20:16:03.256Z,20.20
2018-08-09T20:18:50.476Z,20.17
2018-08-09T20:21:26.596Z,20.14
2018-08-09T20:24:02.143Z,20.13
2018-08-09T20:26:37.517Z,20.12
2018-08-09T20:29:11.129Z,20.19
2018-08-09T20:31:47.870Z,20.21
2018-08-09T20:34:24.166Z,20.18
2018-08-09T20:36:58.835Z,20.20
2018-08-09T20:39:33.723Z,20.22
2018-08-09T20:42:09.261Z,20.16
2018-08-09T20:44:45.299Z,20.18
2018-08-09T20:52:23.275Z,20.14
2018-08-09T20:54:58.389Z,20.06
2018-08-09T20:57:34.969Z,20.02
2018-08-09T21:00:19.852Z,19.83
2018-08-09T21:02:56.043Z,19.64
2018-08-09T21:05:33.767Z,19.48
2018-08-09T21:08:13.120Z,19.40
2018-08-09T21:10:47.913Z,19.34
2018-08-09T21:13:23.977Z,19.27
2018-08-09T21:15:58.677Z,19.04
2018-08-09T21:18:32.915Z,18.84
2018-08-09T21:21:15.444Z,18.71
2018-08-09T21:23:49.421Z,18.49
2018-08-09T21:26:23.212Z,18.16
2018-08-09T21:28:57.566Z,17.92
2018-08-09T21:31:34.208Z,17.79
2018-08-09T21:34:10.610Z,17.72
2018-08-09T21:36:45.197Z,17.66
2018-08-09T21:39:17.916Z,17.64
2018-08-09T21:41:52.417Z,17.64
2018-08-09T21:44:26.061Z,17.64
2018-08-09T21:47:00.952Z,17.65
2018-08-09T21:49:34.539Z,17.65
2018-08-09T21:52:11.064Z,17.66
2018-08-09T21:54:45.376Z,17.66
2018-08-09T21:57:18.972Z,17.67
2018-08-09T21:59:53.293Z,17.67
2018-08-09T22:02:26.432Z,17.67
2018-08-09T22:05:05.698Z,17.67
2018-08-09T22:07:44.705Z,17.66
2018-08-09T22:10:24.294Z,17.63
2018-08-09T22:13:02.660Z,17.57
2018-08-09T22:15:43.701Z,17.54
2018-08-09T22:18:24.804Z,17.49
2018-08-09T22:21:08.342Z,17.44
2018-08-09T22:23:41.090Z,17.40
2018-08-09T22:26:15.314Z,17.30
2018-08-09T22:28:47.970Z,17.21
2018-08-09T22:31:20.821Z,17.11
2018-08-09T22:33:55.214Z,16.89
2018-08-09T22:36:28.790Z,16.79
2018-08-09T22:39:02.274Z,16.75
2018-08-09T22:41:37.594Z,16.75
2018-08-09T22:44:12.295Z,16.73
2018-08-09T22:46:45.883Z,16.75
2018-08-09T22:49:20.246Z,16.77
2018-08-09T22:51:55.245Z,16.78
2018-08-09T22:54:29.102Z,16.79
2018-08-09T22:57:03.820Z,16.81
2018-08-09T22:59:38.771Z,16.80
2018-08-09T23:02:11.410Z,16.80
2018-08-09T23:04:45.391Z,16.81
2018-08-09T23:07:23.048Z,16.84
2018-08-09T23:09:57.887Z,16.86
2018-08-09T23:12:31.938Z,16.86
2018-08-09T23:15:09.248Z,16.82
2018-08-09T23:17:44.172Z,16.79
2018-08-09T23:20:18.517Z,16.77
2018-08-09T23:22:51.305Z,16.78
2018-08-09T23:25:23.870Z,16.74
2018-08-09T23:27:56.661Z,16.58
2018-08-09T23:30:29.472Z,16.36
2018-08-09T23:33:02.309Z,16.16
2018-08-09T23:35:35.481Z,16.03
2018-08-09T23:38:09.031Z,15.99
2018-08-09T23:40:41.809Z,15.97
2018-08-09T23:43:17.059Z,15.98
2018-08-09T23:45:51.416Z,15.99
2018-08-09T23:48:24.121Z,15.99
2018-08-09T23:50:59.627Z,15.97
2018-08-09T23:53:32.235Z,15.95
2018-08-09T23:56:07.804Z,15.93
2018-08-09T23:58:40.765Z,15.89
